Time;durP1;ratioP1;P1;durP2;ratioP2;P2;SDS_P1;SDS_P2;PMS_P1;PMS_P2;Temp;Humidity;BMP_temperature;BMP_pressure;BME280_temperature;BME280_humidity;BME280_pressure;Samples;Min_cycle;Max_cycle;Signal;HPM_P1;HPM_P2
2023/05/02 00:01:07;;;;;;;;;18.33;17.33;;;;;17.18;97.84;101730.28;5100236;27;53996;-75
2023/05/02 00:03:33;;;;;;;;;18.67;17.67;;;;;17.18;98.33;101731.09;5082456;27;45342;-74
2023/05/02 00:05:59;;;;;;;;;16.33;16.33;;;;;17.24;97.79;101729.53;5100814;27;45346;-74
2023/05/02 00:08:24;;;;;;;;;16.67;15.67;;;;;17.29;97.50;101727.06;5100621;27;45341;-74
2023/05/02 00:10:50;;;;;;;;;20.00;18.00;;;;;17.28;97.98;101728.94;5100585;27;46103;-74
2023/05/02 00:13:15;;;;;;;;;18.67;18.00;;;;;17.26;98.13;101714.03;5100310;27;45383;-74
2023/05/02 00:15:40;;;;;;;;;21.00;17.67;;;;;17.25;97.92;101715.91;5100224;27;45290;-74
2023/05/02 00:18:06;;;;;;;;;16.33;16.33;;;;;17.32;97.29;101729.38;5080965;27;46051;-74
2023/05/02 00:20:31;;;;;;;;;16.67;16.33;;;;;17.27;97.57;101723.75;5080853;27;48296;-74
2023/05/02 00:22:56;;;;;;;;;18.33;18.00;;;;;17.27;97.41;101721.88;5100297;27;49031;-74
2023/05/02 00:25:22;;;;;;;;;15.00;15.00;;;;;17.20;97.07;101718.31;5081886;27;54775;-75
2023/05/02 00:27:49;;;;;;;;;18.67;18.67;;;;;17.22;97.19;101724.34;5081845;27;46523;-75
2023/05/02 00:30:15;;;;;;;;;20.33;20.00;;;;;17.18;97.21;101711.50;5099942;27;45477;-74
2023/05/02 00:32:40;;;;;;;;;18.67;17.67;;;;;17.11;97.40;101706.06;5100116;27;45654;-75
2023/05/02 00:35:06;;;;;;;;;18.33;17.67;;;;;17.13;97.22;101710.22;5082067;27;45360;-75
2023/05/02 00:37:32;;;;;;;;;18.00;17.00;;;;;17.04;96.91;101701.44;5100037;27;45326;-75
2023/05/02 00:39:57;;;;;;;;;17.00;15.67;;;;;16.98;97.36;101706.75;5099553;27;59463;-75
2023/05/02 00:42:22;;;;;;;;;15.00;15.00;;;;;17.03;96.80;101715.88;5100018;27;50713;-74
2023/05/02 00:44:48;;;;;;;;;15.33;14.00;;;;;16.96;97.86;101706.09;5100046;27;48635;-75
2023/05/02 00:47:14;;;;;;;;;17.33;16.67;;;;;17.00;97.88;101716.28;5099969;27;45432;-75
2023/05/02 00:49:40;;;;;;;;;13.00;13.00;;;;;16.95;97.74;101705.28;5081685;27;46855;-75
2023/05/02 00:52:06;;;;;;;;;14.67;14.00;;;;;17.01;97.56;101714.44;5099848;27;45354;-75
2023/05/02 00:54:32;;;;;;;;;17.67;15.67;;;;;16.96;97.87;101722.22;5100149;27;45267;-75
2023/05/02 00:56:57;;;;;;;;;17.00;15.67;;;;;16.94;98.36;101718.91;5081442;27;46464;-75
2023/05/02 00:59:24;;;;;;;;;16.00;16.00;;;;;16.86;98.14;101703.75;5099889;27;45998;-75
2023/05/02 01:02:15;;;;;;;;;17.00;14.33;;;;;16.98;98.65;101714.81;5099853;27;45377;-75
2023/05/02 01:04:40;;;;;;;;;15.67;14.33;;;;;16.95;98.20;101718.72;5100140;27;45386;-75
2023/05/02 01:07:28;;;;;;;;;16.67;15.00;;;;;16.91;97.62;101720.09;5099664;27;45230;-75
2023/05/02 01:10:02;;;;;;;;;17.00;15.33;;;;;16.88;97.43;101715.97;5099882;27;45291;-75
2023/05/02 01:12:34;;;;;;;;;14.67;14.67;;;;;16.82;97.11;101715.91;5081031;27;45455;-75
2023/05/02 01:15:06;;;;;;;;;17.33;14.33;;;;;16.88;97.57;101723.19;5099932;27;45293;-75
2023/05/02 01:17:33;;;;;;;;;16.67;15.67;;;;;16.83;97.46;101717.56;5080924;27;46170;-75
2023/05/02 01:20:03;;;;;;;;;16.67;15.67;;;;;16.78;97.04;101721.66;5081185;27;47259;-75
2023/05/02 01:22:31;;;;;;;;;11.33;10.00;;;;;16.79;96.80;101714.41;5099308;27;45472;-75
2023/05/02 01:25:04;;;;;;;;;15.67;15.00;;;;;16.74;97.06;101715.03;5099666;27;45247;-75
2023/05/02 01:27:46;;;;;;;;;17.00;15.67;;;;;16.72;96.74;101718.91;5081084;27;45586;-75
2023/05/02 01:30:13;;;;;;;;;14.33;14.33;;;;;16.61;96.64;101714.91;5099364;27;45699;-75
2023/05/02 01:32:42;;;;;;;;;18.00;17.67;;;;;16.64;96.26;101727.94;5102910;27;45324;-75
2023/05/02 01:35:10;;;;;;;;;13.33;12.33;;;;;16.57;96.14;101727.84;5084617;27;45320;-75
2023/05/02 01:37:38;;;;;;;;;16.00;13.00;;;;;16.56;96.52;101728.88;5102786;27;45347;-75
2023/05/02 01:40:06;;;;;;;;;17.00;16.33;;;;;16.43;96.13;101729.53;5102852;27;45319;-75
2023/05/02 01:42:35;;;;;;;;;13.00;13.00;;;;;16.40;96.12;101732.59;5084550;27;45490;-75
2023/05/02 01:45:03;;;;;;;;;15.00;15.00;;;;;16.30;95.91;101713.28;5102965;27;45276;-74
2023/05/02 01:47:32;;;;;;;;;15.67;15.67;;;;;16.32;95.68;101735.41;5084061;27;46132;-75
2023/05/02 01:49:58;;;;;;;;;16.33;15.33;;;;;16.32;95.45;101738.94;5084351;27;48182;-75
2023/05/02 01:52:26;;;;;;;;;14.33;14.00;;;;;16.27;95.68;101742.19;5084239;27;45319;-75
2023/05/02 01:54:54;;;;;;;;;17.33;16.67;;;;;16.17;95.24;101738.13;5084350;27;45432;-75
2023/05/02 01:57:20;;;;;;;;;16.00;16.00;;;;;16.10;95.98;101735.38;5102661;27;45406;-75
2023/05/02 01:59:48;;;;;;;;;17.00;16.00;;;;;16.08;96.19;101740.91;5102023;27;59434;-75
2023/05/02 02:02:15;;;;;;;;;22.67;18.00;;;;;16.01;96.21;101726.56;5084123;27;46363;-74
2023/05/02 02:04:42;;;;;;;;;17.67;16.67;;;;;16.00;96.64;101741.00;5102623;27;45370;-75
2023/05/02 02:07:11;;;;;;;;;20.33;19.67;;;;;15.94;96.15;101726.47;5102402;27;45398;-75
2023/05/02 02:09:37;;;;;;;;;18.67;18.33;;;;;15.97;96.43;101742.22;5083997;27;47295;-74
2023/05/02 02:12:07;;;;;;;;;16.00;16.00;;;;;15.93;96.87;101732.00;5102424;27;45326;-74
2023/05/02 02:14:36;;;;;;;;;15.67;15.67;;;;;15.97;97.22;101741.38;5084155;27;45368;-74
2023/05/02 02:17:09;;;;;;;;;18.00;17.00;;;;;15.92;97.00;101735.72;5083743;27;46287;-75
2023/05/02 02:19:37;;;;;;;;;20.00;16.33;;;;;15.92;97.15;101736.53;5102317;27;46467;-74
2023/05/02 02:22:05;;;;;;;;;19.33;17.67;;;;;15.90;96.97;101728.66;5102118;27;45339;-75
2023/05/02 02:24:34;;;;;;;;;20.00;17.00;;;;;15.88;96.70;101737.94;5084167;27;45459;-74
2023/05/02 02:26:59;;;;;;;;;17.67;17.00;;;;;15.88;97.00;101733.41;5083925;27;47015;-75
2023/05/02 02:29:24;;;;;;;;;19.67;16.33;;;;;15.83;97.31;101735.00;5074073;28;46730;-74
2023/05/02 02:31:50;;;;;;;;;19.00;16.33;;;;;15.73;96.88;101729.88;5081507;28;45255;-74
2023/05/02 02:34:15;;;;;;;;;17.67;17.67;;;;;15.80;96.97;101740.72;5081513;28;50330;-75
2023/05/02 02:36:47;;;;;;;;;18.00;18.00;;;;;15.80;96.90;101733.47;5081545;28;45501;-75
2023/05/02 02:39:31;;;;;;;;;17.00;14.00;;;;;15.78;96.47;101733.66;5099973;27;45356;-75
2023/05/02 02:42:29;;;;;;;;;16.00;15.67;;;;;15.73;96.84;101743.28;5101708;27;45344;-74
2023/05/02 02:45:22;;;;;;;;;14.00;13.00;;;;;15.68;95.92;101741.16;5067652;27;45356;-74
2023/05/02 02:47:58;;;;;;;;;18.33;17.33;;;;;15.65;96.57;101739.69;5101870;27;45534;-75
2023/05/02 02:50:39;;;;;;;;;18.00;14.33;;;;;15.65;95.78;101749.56;5101640;27;45669;-74
2023/05/02 02:53:09;;;;;;;;;19.00;15.33;;;;;15.58;96.03;101733.41;5101881;27;45373;-74
2023/05/02 02:55:46;;;;;;;;;16.33;15.67;;;;;15.53;95.71;101739.31;5083132;27;45300;-75
2023/05/02 02:58:24;;;;;;;;;17.33;14.33;;;;;15.59;95.53;101747.63;5083106;27;46107;-74
2023/05/02 03:00:50;;;;;;;;;17.00;16.33;;;;;15.56;95.28;101748.81;5101470;27;45349;-74
2023/05/02 03:03:17;;;;;;;;;16.67;16.33;;;;;15.50;95.09;101755.75;5083307;27;45802;-74
2023/05/02 03:05:43;;;;;;;;;15.67;15.33;;;;;15.47;95.12;101763.31;5101386;27;45368;-74
2023/05/02 03:08:09;;;;;;;;;17.00;17.00;;;;;15.45;95.08;101766.19;5083102;27;46469;-75
2023/05/02 03:10:34;;;;;;;;;21.67;19.67;;;;;15.40;95.19;101765.88;5101334;27;47313;-74
2023/05/02 03:13:00;;;;;;;;;19.00;17.67;;;;;15.32;94.95;101763.28;5101524;27;45330;-75
2023/05/02 03:15:48;;;;;;;;;18.00;17.00;;;;;15.38;95.43;101768.75;5082689;27;45406;-75
2023/05/02 03:18:14;;;;;;;;;16.00;16.00;;;;;15.26;95.11;101762.97;5082901;27;47599;-75
2023/05/02 03:20:39;;;;;;;;;18.67;17.33;;;;;15.21;94.87;101754.69;5101217;27;45357;-75
2023/05/02 03:23:04;;;;;;;;;23.00;19.00;;;;;15.19;94.69;101759.38;5101657;27;45314;-75
2023/05/02 03:25:30;;;;;;;;;18.67;18.33;;;;;15.13;94.78;101752.91;5082591;27;56504;-75
2023/05/02 03:27:56;;;;;;;;;17.67;17.67;;;;;15.08;94.54;101751.78;5100762;27;60286;-75
2023/05/02 03:30:22;;;;;;;;;16.33;14.33;;;;;15.13;94.78;101763.59;5100899;27;46194;-74
2023/05/02 03:32:47;;;;;;;;;20.00;18.00;;;;;15.06;94.87;101757.31;5100839;27;45313;-74
2023/05/02 03:35:12;;;;;;;;;22.33;19.67;;;;;15.06;94.72;101762.66;5100901;27;50587;-75
2023/05/02 03:37:38;;;;;;;;;16.67;16.33;;;;;15.01;94.76;101770.38;5082748;27;46876;-75
2023/05/02 03:40:03;;;;;;;;;19.33;19.33;;;;;14.91;95.20;101759.06;5098762;27;58486;-75
2023/05/02 03:42:29;;;;;;;;;20.00;19.00;;;;;14.98;94.75;101771.56;5101110;27;45232;-75
2023/05/02 03:44:55;;;;;;;;;18.00;17.67;;;;;14.94;94.75;101764.06;5101160;27;45339;-75
2023/05/02 03:47:20;;;;;;;;;14.67;14.33;;;;;14.92;95.06;101768.75;5100919;27;45444;-75
2023/05/02 03:49:45;;;;;;;;;19.33;17.67;;;;;14.91;94.96;101761.75;5082568;27;46987;-75
2023/05/02 03:52:11;;;;;;;;;17.67;15.67;;;;;14.79;95.08;101750.63;5082611;27;45794;-75
2023/05/02 03:54:36;;;;;;;;;18.33;15.00;;;;;14.81;95.23;101765.50;5098922;27;45266;-75
2023/05/02 03:57:03;;;;;;;;;18.67;18.67;;;;;14.84;95.38;101766.97;5100903;27;45298;-75
2023/05/02 03:59:31;;;;;;;;;19.00;18.00;;;;;14.74;96.79;101764.50;5100671;27;45976;-75
2023/05/02 04:01:57;;;;;;;;;19.67;17.33;;;;;14.76;96.25;101763.31;5082089;27;45368;-75
2023/05/02 04:04:23;;;;;;;;;18.00;18.00;;;;;14.67;96.49;101759.03;5100803;27;45322;-75
2023/05/02 04:06:48;;;;;;;;;21.00;20.33;;;;;14.68;96.77;101751.84;5082089;27;46422;-75
2023/05/02 04:09:13;;;;;;;;;16.67;16.67;;;;;14.63;96.71;101755.88;5082308;27;48153;-75
2023/05/02 04:11:39;;;;;;;;;19.33;17.33;;;;;14.61;96.68;101768.59;5100513;27;45307;-75
2023/05/02 04:14:04;;;;;;;;;18.00;18.00;;;;;14.64;96.36;101776.25;5082429;27;45334;-75
2023/05/02 04:16:29;;;;;;;;;21.67;18.33;;;;;14.60;96.67;101782.97;5099924;27;56103;-75
2023/05/02 04:18:55;;;;;;;;;16.33;16.33;;;;;14.56;96.53;101770.13;5100390;27;45335;-75
2023/05/02 04:21:20;;;;;;;;;17.67;16.67;;;;;14.49;96.68;101773.50;5099186;27;53214;-75
2023/05/02 04:23:45;;;;;;;;;19.67;19.67;;;;;14.43;96.46;101762.69;5099658;27;45335;-75
2023/05/02 04:26:10;;;;;;;;;19.33;16.67;;;;;14.50;96.61;101779.69;5099093;27;53020;-75
2023/05/02 04:28:36;;;;;;;;;19.67;19.67;;;;;14.48;96.37;101774.50;5081433;27;47134;-75
2023/05/02 04:31:02;;;;;;;;;14.33;13.67;;;;;14.53;96.42;101779.34;5100259;27;45362;-75
2023/05/02 04:33:28;;;;;;;;;20.00;20.00;;;;;14.46;96.45;101784.53;5099746;27;45311;-75
2023/05/02 04:35:53;;;;;;;;;19.33;17.00;;;;;14.52;96.12;101805.25;5081667;27;47275;-75
2023/05/02 04:38:19;;;;;;;;;17.67;17.67;;;;;14.54;95.76;101801.59;5088256;27;59536;-75
2023/05/02 04:40:44;;;;;;;;;19.67;19.00;;;;;14.54;95.60;101812.28;5078111;28;45321;-75
2023/05/02 04:43:10;;;;;;;;;18.00;18.00;;;;;14.42;95.54;101807.31;5079797;28;45250;-74
2023/05/02 04:45:35;;;;;;;;;19.00;17.67;;;;;14.45;95.58;101812.31;5079076;28;58217;-75
2023/05/02 04:48:01;;;;;;;;;16.33;16.33;;;;;14.39;95.33;101810.31;5079548;28;45334;-74
2023/05/02 04:50:28;;;;;;;;;19.00;19.00;;;;;14.27;95.54;101797.34;5079278;28;45391;-74
2023/05/02 04:52:53;;;;;;;;;18.00;17.67;;;;;14.29;95.31;101807.88;5079850;28;45267;-74
2023/05/02 04:55:18;;;;;;;;;18.67;18.33;;;;;14.35;96.24;101823.22;5079407;28;45290;-74
2023/05/02 04:57:44;;;;;;;;;21.00;18.67;;;;;14.37;96.47;101826.53;5079487;28;45789;-74
2023/05/02 05:00:10;;;;;;;;;19.33;17.00;;;;;14.30;96.47;101811.38;5060720;28;56393;-73
2023/05/02 05:02:35;;;;;;;;;15.67;15.67;;;;;14.33;96.63;101822.56;5079254;28;45435;-74
2023/05/02 05:05:01;;;;;;;;;18.33;17.33;;;;;14.35;96.72;101825.06;5080033;28;45468;-75
2023/05/02 05:07:26;;;;;;;;;18.00;18.00;;;;;14.26;96.77;101813.56;5082039;28;45314;-74
2023/05/02 05:09:52;;;;;;;;;22.00;21.00;;;;;14.35;97.04;101827.72;5082646;28;45165;-75
2023/05/02 05:12:18;;;;;;;;;22.00;20.00;;;;;14.43;98.19;101829.53;5064414;28;50697;-74
2023/05/02 05:14:44;;;;;;;;;20.00;20.00;;;;;14.17;99.20;101803.88;5082868;28;45499;-74
2023/05/02 05:17:09;;;;;;;;;23.33;21.33;;;;;14.41;99.20;101839.56;5064430;28;47167;-73
2023/05/02 05:19:34;;;;;;;;;23.33;18.33;;;;;14.42;99.30;101846.59;5064205;28;45347;-74
2023/05/02 05:22:00;;;;;;;;;22.00;20.00;;;;;14.45;99.11;101852.44;5064410;28;48234;-74
2023/05/02 05:24:25;;;;;;;;;28.00;23.67;;;;;14.44;98.59;101848.09;5082084;28;45229;-74
2023/05/02 05:26:50;;;;;;;;;22.00;17.67;;;;;14.42;99.22;101850.09;5081673;28;45370;-74
2023/05/02 05:29:17;;;;;;;;;28.33;27.67;;;;;14.51;99.49;101869.63;5081630;28;50773;-74
2023/05/02 05:31:42;;;;;;;;;20.33;18.33;;;;;14.54;98.93;101871.94;5082565;28;45422;-75
2023/05/02 05:34:08;;;;;;;;;25.67;23.00;;;;;14.68;99.69;101890.97;5064104;28;46552;-75
2023/05/02 05:36:33;;;;;;;;;19.67;19.67;;;;;14.71;100.00;101880.75;5082358;28;45314;-74
2023/05/02 05:38:58;;;;;;;;;26.00;24.00;;;;;14.79;100.00;101884.44;5080729;27;45363;-74
2023/05/02 05:41:24;;;;;;;;;29.67;25.00;;;;;14.93;100.00;101883.69;5103026;27;45514;-74
2023/05/02 05:43:49;;;;;;;;;25.33;25.33;;;;;14.95;100.00;101859.41;5084138;27;54630;-74
2023/05/02 05:46:14;;;;;;;;;26.33;23.33;;;;;15.18;100.00;101874.69;5083895;27;47411;-74
2023/05/02 05:48:40;;;;;;;;;31.33;29.33;;;;;15.28;100.00;101877.97;5101968;27;45403;-74
2023/05/02 05:51:05;;;;;;;;;34.67;31.00;;;;;15.42;100.00;101883.56;5084173;27;45383;-74
2023/05/02 05:53:31;;;;;;;;;33.33;31.67;;;;;15.41;100.00;101866.66;5102820;27;45350;-74
2023/05/02 05:55:57;;;;;;;;;42.33;35.00;;;;;15.62;100.00;101887.41;5102615;27;45343;-75
2023/05/02 05:58:22;;;;;;;;;35.00;31.00;;;;;15.74;100.00;101898.53;5102865;27;45279;-74
2023/05/02 06:00:48;;;;;;;;;33.00;30.00;;;;;15.87;100.00;101892.56;5102657;27;45766;-74
2023/05/02 06:03:13;;;;;;;;;33.00;31.33;;;;;16.00;100.00;101897.34;5083957;27;47419;-74
2023/05/02 06:05:38;;;;;;;;;25.00;23.33;;;;;16.08;100.00;101898.28;5101338;27;46437;-75
2023/05/02 06:08:04;;;;;;;;;38.67;33.33;;;;;16.21;100.00;101903.84;5102585;27;45248;-74
2023/05/02 06:10:30;;;;;;;;;35.00;30.00;;;;;16.32;100.00;101917.81;5102328;27;45219;-75
2023/05/02 06:12:56;;;;;;;;;28.00;24.00;;;;;16.34;100.00;101926.53;5084154;27;47307;-75
2023/05/02 06:15:21;;;;;;;;;27.67;27.67;;;;;16.38;100.00;101927.81;5102137;27;45359;-76
2023/05/02 06:17:47;;;;;;;;;33.00;29.00;;;;;16.40;100.00;101928.44;5069830;28;45330;-76
2023/05/02 06:20:12;;;;;;;;;25.33;25.00;;;;;16.40;100.00;101931.97;5081993;28;45424;-75
2023/05/02 06:22:38;;;;;;;;;29.33;29.33;;;;;16.41;100.00;101930.13;5081929;28;45322;-75
2023/05/02 06:25:04;;;;;;;;;34.67;30.67;;;;;16.50;100.00;101928.19;5062356;28;48012;-74
2023/05/02 06:27:30;;;;;;;;;38.00;32.00;;;;;16.57;100.00;101925.59;5081610;28;45444;-75
2023/05/02 06:29:55;;;;;;;;;30.33;29.33;;;;;16.55;100.00;101930.31;5095562;27;45337;-75
2023/05/02 06:32:21;;;;;;;;;34.33;30.33;;;;;16.68;100.00;101949.28;5102024;27;45543;-75
2023/05/02 06:34:46;;;;;;;;;34.00;27.67;;;;;16.70;100.00;101936.50;5083609;27;47141;-75
2023/05/02 06:37:12;;;;;;;;;32.00;29.67;;;;;16.64;100.00;101943.44;5083485;27;45471;-75
2023/05/02 06:39:37;;;;;;;;;39.00;31.67;;;;;16.58;100.00;101936.13;5102018;27;49744;-74
2023/05/02 06:42:02;;;;;;;;;40.67;34.67;;;;;16.74;100.00;101948.56;5101711;27;55427;-75
2023/05/02 06:44:28;;;;;;;;;46.50;38.50;;;;;16.74;100.00;101956.59;5101922;27;45313;-74
2023/05/02 06:46:54;;;;;;;;;33.33;30.67;;;;;16.82;100.00;101947.59;5101878;27;45297;-75
2023/05/02 06:49:20;;;;;;;;;30.67;29.00;;;;;16.85;100.00;101962.53;5083222;27;45268;-74
2023/05/02 06:51:45;;;;;;;;;28.33;28.00;;;;;16.74;100.00;101959.28;5100970;27;45338;-75
2023/05/02 06:54:11;;;;;;;;;28.67;25.33;;;;;16.68;100.00;101964.56;5101083;27;56904;-74
2023/05/02 06:56:36;;;;;;;;;24.00;23.00;;;;;16.72;100.00;101964.00;5101883;27;45355;-75
2023/05/02 06:59:02;;;;;;;;;24.33;22.00;;;;;16.67;100.00;101955.66;5102055;27;45312;-74
2023/05/02 07:01:27;;;;;;;;;26.00;25.00;;;;;16.62;100.00;101939.28;5101487;27;47950;-74
2023/05/02 07:03:53;;;;;;;;;25.33;25.33;;;;;16.73;100.00;101960.28;5082488;27;57795;-75
2023/05/02 07:06:18;;;;;;;;;27.33;26.67;;;;;16.78;100.00;101957.88;5101571;27;45396;-75
2023/05/02 07:08:43;;;;;;;;;26.67;25.00;;;;;16.74;100.00;101943.19;5083520;27;45322;-74
2023/05/02 07:11:09;;;;;;;;;29.33;25.67;;;;;16.95;100.00;101967.59;5083008;27;46006;-74
2023/05/02 07:13:34;;;;;;;;;29.00;26.00;;;;;16.97;100.00;101966.38;5101257;27;46037;-75
2023/05/02 07:16:00;;;;;;;;;26.67;25.33;;;;;16.98;100.00;101954.63;5100783;27;45548;-74
2023/05/02 07:18:25;;;;;;;;;34.00;30.00;;;;;17.14;100.00;101976.94;5083327;27;45334;-75
2023/05/02 07:20:51;;;;;;;;;22.00;21.33;;;;;17.09;100.00;101957.88;5101109;27;45369;-74
2023/05/02 07:23:16;;;;;;;;;31.33;28.00;;;;;17.24;100.00;101972.09;5101415;27;45305;-74
2023/05/02 07:25:42;;;;;;;;;26.33;25.67;;;;;17.34;100.00;101973.66;5101432;27;45317;-75
2023/05/02 07:28:07;;;;;;;;;21.67;21.33;;;;;17.31;100.00;101952.53;5081694;27;47074;-74
2023/05/02 07:30:32;;;;;;;;;47.33;40.33;;;;;17.42;100.00;101965.50;5100816;27;45260;-74
2023/05/02 07:32:58;;;;;;;;;31.00;28.33;;;;;17.50;100.00;101968.06;5101071;27;45330;-74
2023/05/02 07:35:23;;;;;;;;;41.00;34.00;;;;;17.59;100.00;101976.81;5101018;27;45213;-74
2023/05/02 07:37:48;;;;;;;;;27.67;25.67;;;;;17.59;100.00;101962.53;5100893;27;45252;-75
2023/05/02 07:40:14;;;;;;;;;26.00;25.33;;;;;17.68;100.00;101969.47;5082546;27;49977;-74
2023/05/02 07:42:43;;;;;;;;;28.33;27.33;;;;;17.64;100.00;101952.91;5082522;27;51303;-75
2023/05/02 07:45:09;;;;;;;;;28.00;27.00;;;;;17.71;99.84;101974.47;5100897;27;45486;-75
2023/05/02 07:47:34;;;;;;;;;47.33;35.00;;;;;17.72;100.00;101989.56;5082583;27;45452;-75
2023/05/02 07:49:59;;;;;;;;;50.67;40.67;;;;;17.63;100.00;101967.34;5100355;27;45318;-75
2023/05/02 07:52:25;;;;;;;;;25.00;24.00;;;;;17.88;100.00;102004.63;5100834;27;45374;-75
2023/05/02 07:54:51;;;;;;;;;54.00;41.67;;;;;17.98;100.00;101998.06;5082284;27;51690;-75
2023/05/02 07:57:16;;;;;;;;;42.33;37.00;;;;;17.96;100.00;101992.88;5100818;27;45342;-75
2023/05/02 07:59:42;;;;;;;;;56.25;44.00;;;;;18.03;100.00;102001.88;5082526;27;45568;-74
2023/05/02 08:02:07;;;;;;;;;37.33;33.00;;;;;18.15;99.04;102004.03;5081905;27;47085;-75
2023/05/02 08:04:33;;;;;;;;;31.67;30.33;;;;;18.14;99.64;102002.38;5100827;27;45297;-75
2023/05/02 08:06:59;;;;;;;;;45.33;35.67;;;;;18.22;100.00;102009.47;5100547;27;45487;-75
2023/05/02 08:09:24;;;;;;;;;29.67;27.67;;;;;18.26;99.69;102011.56;5081940;27;47269;-75
2023/05/02 08:11:50;;;;;;;;;33.67;31.33;;;;;18.27;99.75;102002.50;5082327;27;48071;-75
2023/05/02 08:14:15;;;;;;;;;40.67;34.67;;;;;18.28;98.31;102006.84;5082155;27;45929;-75
2023/05/02 08:16:41;;;;;;;;;20.67;20.67;;;;;18.23;98.14;102011.16;5099824;27;45221;-75
2023/05/02 08:19:06;;;;;;;;;25.33;25.00;;;;;18.20;97.94;102007.00;5082167;27;46211;-75
2023/05/02 08:21:32;;;;;;;;;56.50;44.50;;;;;18.22;97.81;102004.94;5100254;27;46488;-75
2023/05/02 08:23:58;;;;;;;;;31.33;30.00;;;;;18.22;98.59;102010.31;5100470;27;45258;-75
2023/05/02 08:26:23;;;;;;;;;25.33;24.00;;;;;18.31;99.15;102015.56;5081980;27;45396;-75
2023/05/02 08:28:50;;;;;;;;;26.67;25.00;;;;;18.53;99.64;102032.50;5100425;27;45324;-75
2023/05/02 08:31:15;;;;;;;;;28.67;26.67;;;;;18.57;98.43;102025.69;5081897;27;48063;-75
2023/05/02 08:33:41;;;;;;;;;58.00;45.67;;;;;18.60;97.04;102025.28;5099697;27;45294;-76
2023/05/02 08:36:14;;;;;;;;;79.50;76.50;;;;;18.54;97.02;102020.69;5100307;27;45381;-75
2023/05/02 08:38:40;;;;;;;;;66.00;51.25;;;;;18.65;96.86;102041.66;5099981;27;45486;-75
2023/05/02 08:41:19;;;;;;;;;18.00;16.67;;;;;18.60;96.70;102046.84;5099698;27;45331;-75
2023/05/02 08:43:45;;;;;;;;;21.33;20.33;;;;;18.54;96.79;102043.06;5099869;27;45294;-75
2023/05/02 08:46:12;;;;;;;;;22.33;22.00;;;;;18.52;96.17;102041.56;5100143;27;45245;-75
2023/05/02 08:48:41;;;;;;;;;63.75;50.75;;;;;18.57;96.62;102059.84;5098821;27;45455;-75
2023/05/02 08:51:12;;;;;;;;;44.67;36.67;;;;;18.58;96.49;102061.53;5081492;27;47489;-76
2023/05/02 08:53:39;;;;;;;;;43.00;35.67;;;;;18.57;96.37;102051.75;5081533;27;45382;-75
2023/05/02 08:56:11;;;;;;;;;65.00;50.50;;;;;18.57;96.66;102046.38;5081428;27;45352;-74
2023/05/02 08:58:39;;;;;;;;;45.33;37.00;;;;;18.61;96.98;102045.78;5099894;27;45480;-75
2023/05/02 09:01:14;;;;;;;;;46.67;38.00;;;;;18.72;97.04;102059.75;5080989;27;47557;-75
2023/05/02 09:03:45;;;;;;;;;25.33;24.00;;;;;18.71;96.15;102061.63;5099975;27;45394;-75
2023/05/02 09:06:21;;;;;;;;;28.67;27.67;;;;;18.71;96.26;102074.25;5100029;27;45237;-76
2023/05/02 09:08:53;;;;;;;;;19.00;18.67;;;;;18.62;96.97;102076.25;5099550;27;45512;-75
2023/05/02 09:11:23;;;;;;;;;37.00;31.67;;;;;18.57;96.30;102060.69;5099587;27;46092;-76
2023/05/02 09:13:50;;;;;;;;;71.50;57.75;;;;;18.60;96.23;102073.75;5099128;27;45420;-75
2023/05/02 09:16:24;;;;;;;;;84.00;70.50;;;;;18.59;97.18;102090.09;5079400;27;45388;-75
2023/05/02 09:18:57;;;;;;;;;50.00;38.67;;;;;18.57;96.08;102087.59;5099156;27;45317;-75
2023/05/02 09:21:42;;;;;;;;;68.00;52.25;;;;;18.50;96.79;102076.75;5099441;27;46646;-75
2023/05/02 09:24:17;;;;;;;;;49.33;39.67;;;;;18.53;97.58;102078.25;5099643;27;45342;-75
2023/05/02 09:26:42;;;;;;;;;52.50;43.00;;;;;18.60;97.49;102086.38;5081279;27;45323;-75
2023/05/02 09:29:08;;;;;;;;;70.75;59.50;;;;;18.65;98.62;102084.75;5097788;27;47394;-75
2023/05/02 09:31:37;;;;;;;;;28.67;28.33;;;;;18.80;97.22;102087.34;5080390;27;63241;-75
2023/05/02 09:34:15;;;;;;;;;26.33;24.00;;;;;18.90;97.19;102088.88;5099399;27;45279;-75
2023/05/02 09:36:42;;;;;;;;;19.67;19.00;;;;;19.11;97.30;102081.75;5080890;27;45325;-75
2023/05/02 09:39:10;;;;;;;;;21.67;21.33;;;;;19.37;96.83;102082.94;5099295;27;45368;-75
2023/05/02 09:41:45;;;;;;;;;18.67;17.00;;;;;19.54;96.01;102084.22;5099296;27;46192;-75
2023/05/02 09:44:19;;;;;;;;;20.67;20.67;;;;;19.73;95.00;102084.50;5080975;27;45407;-75
2023/05/02 09:46:50;;;;;;;;;38.33;33.00;;;;;19.87;93.74;102087.25;5080250;27;45563;-75
2023/05/02 09:49:19;;;;;;;;;41.00;34.00;;;;;19.96;93.94;102088.69;5080956;27;46174;-75
2023/05/02 09:51:46;;;;;;;;;21.00;20.00;;;;;19.96;92.61;102090.59;5100146;27;45409;-75
2023/05/02 09:54:12;;;;;;;;;22.00;21.00;;;;;19.97;92.80;102076.88;5102760;27;45419;-75
2023/05/02 09:56:57;;;;;;;;;26.33;24.00;;;;;19.92;92.67;102082.06;5102875;27;45286;-76
2023/05/02 09:59:23;;;;;;;;;50.33;40.00;;;;;19.92;92.58;102090.16;5102607;27;45475;-76
2023/05/02 10:01:56;;;;;;;;;31.33;29.00;;;;;19.90;92.95;102066.06;5102389;27;45256;-75
2023/05/02 10:04:21;;;;;;;;;24.00;24.00;;;;;20.22;93.21;102092.50;5102811;27;45413;-75
2023/05/02 10:06:50;;;;;;;;;28.67;27.67;;;;;20.36;92.47;102089.81;5084099;27;45371;-75
2023/05/02 10:09:17;;;;;;;;;27.00;26.67;;;;;20.46;92.58;102086.69;5083972;27;46224;-75
2023/05/02 10:11:43;;;;;;;;;52.25;41.25;;;;;20.68;92.57;102100.78;5083323;27;48144;-75
2023/05/02 10:14:09;;;;;;;;;120.50;105.75;;;;;20.65;90.30;102091.25;5083044;27;45371;-75
2023/05/02 10:16:41;;;;;;;;;49.00;41.33;;;;;20.71;90.54;102100.38;5101596;27;45339;-75
2023/05/02 10:19:11;;;;;;;;;29.67;28.00;;;;;20.71;89.98;102092.28;5102477;27;45557;-75
2023/05/02 10:21:39;;;;;;;;;24.00;22.67;;;;;20.67;89.96;102093.75;5102139;27;46360;-75
2023/05/02 10:24:05;;;;;;;;;73.00;65.50;;;;;20.60;89.44;102077.56;5083871;27;45461;-75
2023/05/02 10:26:30;;;;;;;;;41.33;34.00;;;;;20.71;90.19;102094.97;5102560;27;45290;-75
2023/05/02 10:28:56;;;;;;;;;28.33;24.33;;;;;20.88;90.63;102097.25;5083689;27;46312;-75
2023/05/02 10:31:22;;;;;;;;;111.25;95.25;;;;;21.01;89.88;102099.94;5102028;27;45380;-75
2023/05/02 10:33:53;;;;;;;;;22.67;22.67;;;;;20.94;87.05;102096.44;5101904;27;45279;-75
2023/05/02 10:36:22;;;;;;;;;19.67;19.67;;;;;21.01;87.47;102089.13;5083571;27;45325;-75
2023/05/02 10:38:48;;;;;;;;;11.00;11.00;;;;;21.25;88.51;102091.38;5101817;27;45479;-75
2023/05/02 10:41:18;;;;;;;;;25.33;24.00;;;;;21.50;87.48;102080.66;5101969;27;46143;-75
2023/05/02 10:43:48;;;;;;;;;34.67;30.00;;;;;21.59;87.22;102059.59;5102084;27;45282;-75
2023/05/02 10:46:35;;;;;;;;;23.00;21.00;;;;;21.98;85.89;102094.78;5101775;27;45387;-75
2023/05/02 10:49:12;;;;;;;;;21.67;21.67;;;;;22.08;85.73;102086.16;5101983;27;45403;-76
2023/05/02 10:51:40;;;;;;;;;48.33;39.33;;;;;22.23;83.70;102087.75;5083141;27;48233;-75
2023/05/02 10:54:19;;;;;;;;;41.33;33.67;;;;;22.27;83.95;102092.47;5101818;27;45305;-75
2023/05/02 10:57:03;;;;;;;;;25.00;24.00;;;;;22.25;83.00;102096.44;5101889;27;45352;-76
2023/05/02 10:59:29;;;;;;;;;21.67;20.00;;;;;22.24;84.10;102092.09;5101196;27;45523;-75
2023/05/02 11:01:55;;;;;;;;;56.75;45.00;;;;;22.10;83.33;102078.66;5100544;27;45719;-75
2023/05/02 11:04:21;;;;;;;;;20.67;20.67;;;;;22.13;83.55;102090.91;5101595;27;45367;-75
2023/05/02 11:06:55;;;;;;;;;64.75;51.25;;;;;22.24;84.02;102092.09;5083312;27;45361;-75
2023/05/02 11:09:20;;;;;;;;;54.50;44.50;;;;;22.34;83.54;102084.31;5101652;27;45376;-75